sensor_id;sensor_type;location;lat;lon;timestamp;temperature;humidity
9965;DHT22;5023;53.554;9.964;2023-02-01T00:02:15;5.80;99.90
9965;DHT22;5023;53.554;9.964;2023-02-01T00:07:19;5.70;99.90
9965;DHT22;5023;53.554;9.964;2023-02-01T00:12:22;5.70;99.90
9965;DHT22;5023;53.554;9.964;2023-02-01T00:17:24;5.70;99.90
9965;DHT22;5023;53.554;9.964;2023-02-01T00:22:27;5.70;99.90
9965;DHT22;5023;53.554;9.964;2023-02-01T00:27:29;5.70;99.90
9965;DHT22;5023;53.554;9.964;2023-02-01T00:32:31;5.70;99.90
9965;DHT22;5023;53.554;9.964;2023-02-01T00:37:35;5.80;99.90
9965;DHT22;5023;53.554;9.964;2023-02-01T00:42:37;5.80;99.90
9965;DHT22;5023;53.554;9.964;2023-02-01T00:47:39;5.80;99.90
9965;DHT22;5023;53.554;9.964;2023-02-01T00:52:42;5.80;99.90
9965;DHT22;5023;53.554;9.964;2023-02-01T00:57:44;5.90;99.90
9965;DHT22;5023;53.554;9.964;2023-02-01T01:02:46;5.90;99.90
9965;DHT22;5023;53.554;9.964;2023-02-01T01:07:49;5.90;99.90
9965;DHT22;5023;53.554;9.964;2023-02-01T01:12:51;6.00;99.90
9965;DHT22;5023;53.554;9.964;2023-02-01T01:17:54;6.00;99.90
9965;DHT22;5023;53.554;9.964;2023-02-01T01:22:57;6.20;99.90
9965;DHT22;5023;53.554;9.964;2023-02-01T01:27:59;6.00;99.90
9965;DHT22;5023;53.554;9.964;2023-02-01T01:33:03;6.00;99.90
9965;DHT22;5023;53.554;9.964;2023-02-01T01:38:06;6.00;99.90
9965;DHT22;5023;53.554;9.964;2023-02-01T01:43:13;6.10;99.90
9965;DHT22;5023;53.554;9.964;2023-02-01T01:48:19;6.10;99.90
9965;DHT22;5023;53.554;9.964;2023-02-01T01:53:28;6.10;99.90
9965;DHT22;5023;53.554;9.964;2023-02-01T01:58:33;6.10;99.90
9965;DHT22;5023;53.554;9.964;2023-02-01T02:03:39;6.10;99.90
9965;DHT22;5023;53.554;9.964;2023-02-01T02:08:42;6.10;99.90
9965;DHT22;5023;53.554;9.964;2023-02-01T02:13:47;6.10;99.90
9965;DHT22;5023;53.554;9.964;2023-02-01T02:18:59;6.20;99.90
9965;DHT22;5023;53.554;9.964;2023-02-01T02:24:25;6.10;99.90
9965;DHT22;5023;53.554;9.964;2023-02-01T02:29:53;6.10;99.90
9965;DHT22;5023;53.554;9.964;2023-02-01T02:35:01;6.10;99.90
9965;DHT22;5023;53.554;9.964;2023-02-01T02:40:12;6.10;99.90
9965;DHT22;5023;53.554;9.964;2023-02-01T02:45:19;6.00;99.90
9965;DHT22;5023;53.554;9.964;2023-02-01T02:50:46;5.90;99.90
9965;DHT22;5023;53.554;9.964;2023-02-01T02:56:10;5.90;99.90
9965;DHT22;5023;53.554;9.964;2023-02-01T03:01:32;5.90;99.90
9965;DHT22;5023;53.554;9.964;2023-02-01T03:07:09;5.80;99.90
9965;DHT22;5023;53.554;9.964;2023-02-01T03:12:14;5.80;99.90
9965;DHT22;5023;53.554;9.964;2023-02-01T03:17:39;5.80;99.90
9965;DHT22;5023;53.554;9.964;2023-02-01T03:22:47;5.70;99.90
9965;DHT22;5023;53.554;9.964;2023-02-01T03:27:55;5.70;99.90
9965;DHT22;5023;53.554;9.964;2023-02-01T03:33:00;5.60;99.90
9965;DHT22;5023;53.554;9.964;2023-02-01T03:38:21;5.60;99.90
9965;DHT22;5023;53.554;9.964;2023-02-01T03:43:39;5.50;99.90
9965;DHT22;5023;53.554;9.964;2023-02-01T03:48:44;5.40;99.90
9965;DHT22;5023;53.554;9.964;2023-02-01T03:53:48;5.20;99.90
9965;DHT22;5023;53.554;9.964;2023-02-01T03:58:51;5.10;99.90
9965;DHT22;5023;53.554;9.964;2023-02-01T04:04:00;5.10;99.90
9965;DHT22;5023;53.554;9.964;2023-02-01T04:09:05;5.20;99.90
9965;DHT22;5023;53.554;9.964;2023-02-01T04:14:07;5.20;99.90
9965;DHT22;5023;53.554;9.964;2023-02-01T04:19:09;5.20;99.90
9965;DHT22;5023;53.554;9.964;2023-02-01T04:24:13;5.30;99.90
9965;DHT22;5023;53.554;9.964;2023-02-01T04:29:15;5.30;99.90
9965;DHT22;5023;53.554;9.964;2023-02-01T04:34:17;5.20;99.90
9965;DHT22;5023;53.554;9.964;2023-02-01T04:39:21;5.20;99.90
9965;DHT22;5023;53.554;9.964;2023-02-01T04:44:37;5.20;99.90
9965;DHT22;5023;53.554;9.964;2023-02-01T04:49:42;5.30;99.90
9965;DHT22;5023;53.554;9.964;2023-02-01T04:54:46;5.20;99.90
9965;DHT22;5023;53.554;9.964;2023-02-01T04:59:48;5.20;99.90
9965;DHT22;5023;53.554;9.964;2023-02-01T05:04:51;5.10;99.90
9965;DHT22;5023;53.554;9.964;2023-02-01T05:09:54;5.00;99.90
9965;DHT22;5023;53.554;9.964;2023-02-01T05:14:56;4.90;99.90
9965;DHT22;5023;53.554;9.964;2023-02-01T05:19:58;4.60;99.90
9965;DHT22;5023;53.554;9.964;2023-02-01T05:25:02;4.30;99.90
9965;DHT22;5023;53.554;9.964;2023-02-01T05:30:06;4.20;99.90
9965;DHT22;5023;53.554;9.964;2023-02-01T05:35:09;4.00;99.90
9965;DHT22;5023;53.554;9.964;2023-02-01T05:40:12;4.00;99.90
9965;DHT22;5023;53.554;9.964;2023-02-01T05:45:14;3.90;99.90
9965;DHT22;5023;53.554;9.964;2023-02-01T05:50:17;3.80;99.90
9965;DHT22;5023;53.554;9.964;2023-02-01T05:55:22;3.80;99.90
9965;DHT22;5023;53.554;9.964;2023-02-01T06:00:25;3.70;99.90
9965;DHT22;5023;53.554;9.964;2023-02-01T06:05:32;3.70;99.90
9965;DHT22;5023;53.554;9.964;2023-02-01T06:10:36;3.60;99.90
9965;DHT22;5023;53.554;9.964;2023-02-01T06:15:38;3.70;99.90
9965;DHT22;5023;53.554;9.964;2023-02-01T06:20:42;3.70;99.90
9965;DHT22;5023;53.554;9.964;2023-02-01T06:25:46;3.70;99.90
9965;DHT22;5023;53.554;9.964;2023-02-01T06:30:48;3.90;99.90
9965;DHT22;5023;53.554;9.964;2023-02-01T06:35:57;3.90;99.90
9965;DHT22;5023;53.554;9.964;2023-02-01T06:41:01;4.00;99.90
9965;DHT22;5023;53.554;9.964;2023-02-01T06:46:07;4.10;99.90
9965;DHT22;5023;53.554;9.964;2023-02-01T06:51:22;4.20;99.90
9965;DHT22;5023;53.554;9.964;2023-02-01T06:56:26;4.20;99.90
9965;DHT22;5023;53.554;9.964;2023-02-01T07:01:29;4.30;99.90
9965;DHT22;5023;53.554;9.964;2023-02-01T07:06:31;4.30;99.90
9965;DHT22;5023;53.554;9.964;2023-02-01T07:11:34;4.40;99.90
9965;DHT22;5023;53.554;9.964;2023-02-01T07:16:38;4.50;99.90
9965;DHT22;5023;53.554;9.964;2023-02-01T07:21:41;4.60;99.90
9965;DHT22;5023;53.554;9.964;2023-02-01T07:26:44;4.70;99.90
9965;DHT22;5023;53.554;9.964;2023-02-01T07:31:49;4.80;99.90
9965;DHT22;5023;53.554;9.964;2023-02-01T07:36:51;4.90;99.90
9965;DHT22;5023;53.554;9.964;2023-02-01T07:41:55;5.00;99.90
9965;DHT22;5023;53.554;9.964;2023-02-01T07:46:58;5.10;99.90
9965;DHT22;5023;53.554;9.964;2023-02-01T07:52:00;5.20;99.90
9965;DHT22;5023;53.554;9.964;2023-02-01T07:57:04;5.30;99.90
9965;DHT22;5023;53.554;9.964;2023-02-01T08:02:08;5.40;99.90
9965;DHT22;5023;53.554;9.964;2023-02-01T08:07:10;5.40;99.90
9965;DHT22;5023;53.554;9.964;2023-02-01T08:12:14;5.40;99.90
9965;DHT22;5023;53.554;9.964;2023-02-01T08:17:16;5.50;99.90
9965;DHT22;5023;53.554;9.964;2023-02-01T08:22:18;5.50;99.90
9965;DHT22;5023;53.554;9.964;2023-02-01T08:27:21;5.60;99.90
9965;DHT22;5023;53.554;9.964;2023-02-01T08:32:23;5.60;99.90
9965;DHT22;5023;53.554;9.964;2023-02-01T08:37:27;5.70;99.90
9965;DHT22;5023;53.554;9.964;2023-02-01T08:42:30;5.80;99.90
9965;DHT22;5023;53.554;9.964;2023-02-01T08:47:50;5.90;99.90
9965;DHT22;5023;53.554;9.964;2023-02-01T08:52:53;5.80;99.90
9965;DHT22;5023;53.554;9.964;2023-02-01T08:57:57;5.90;99.90
9965;DHT22;5023;53.554;9.964;2023-02-01T09:02:59;6.00;99.90
9965;DHT22;5023;53.554;9.964;2023-02-01T09:08:01;6.30;99.90
9965;DHT22;5023;53.554;9.964;2023-02-01T09:13:05;6.40;99.90
9965;DHT22;5023;53.554;9.964;2023-02-01T09:18:09;6.40;99.90
9965;DHT22;5023;53.554;9.964;2023-02-01T09:23:11;6.50;99.90
9965;DHT22;5023;53.554;9.964;2023-02-01T09:28:14;6.70;99.90
9965;DHT22;5023;53.554;9.964;2023-02-01T09:33:16;6.50;99.90
9965;DHT22;5023;53.554;9.964;2023-02-01T09:38:19;6.60;99.90
9965;DHT22;5023;53.554;9.964;2023-02-01T09:43:30;6.60;99.90
9965;DHT22;5023;53.554;9.964;2023-02-01T09:48:41;6.50;99.90
9965;DHT22;5023;53.554;9.964;2023-02-01T09:53:48;6.50;99.90
9965;DHT22;5023;53.554;9.964;2023-02-01T09:59:04;6.50;99.90
9965;DHT22;5023;53.554;9.964;2023-02-01T10:04:14;6.60;99.90
9965;DHT22;5023;53.554;9.964;2023-02-01T10:09:29;6.70;99.90
9965;DHT22;5023;53.554;9.964;2023-02-01T10:14:46;6.70;99.90
9965;DHT22;5023;53.554;9.964;2023-02-01T10:19:56;6.80;99.90
9965;DHT22;5023;53.554;9.964;2023-02-01T10:25:06;6.70;99.90
9965;DHT22;5023;53.554;9.964;2023-02-01T10:30:19;6.70;99.90
9965;DHT22;5023;53.554;9.964;2023-02-01T10:35:26;6.60;99.90
9965;DHT22;5023;53.554;9.964;2023-02-01T10:40:30;6.60;99.90
9965;DHT22;5023;53.554;9.964;2023-02-01T10:45:36;6.60;99.90
9965;DHT22;5023;53.554;9.964;2023-02-01T10:50:46;6.50;99.90
9965;DHT22;5023;53.554;9.964;2023-02-01T10:55:52;6.50;99.90
9965;DHT22;5023;53.554;9.964;2023-02-01T11:00:57;6.40;99.90
9965;DHT22;5023;53.554;9.964;2023-02-01T11:06:11;6.30;99.90
9965;DHT22;5023;53.554;9.964;2023-02-01T11:11:15;6.30;99.90
9965;DHT22;5023;53.554;9.964;2023-02-01T11:16:19;6.30;99.90
9965;DHT22;5023;53.554;9.964;2023-02-01T11:21:21;6.40;99.90
9965;DHT22;5023;53.554;9.964;2023-02-01T11:26:25;6.40;99.90
9965;DHT22;5023;53.554;9.964;2023-02-01T11:31:30;6.50;99.90
9965;DHT22;5023;53.554;9.964;2023-02-01T11:36:36;6.50;99.90
9965;DHT22;5023;53.554;9.964;2023-02-01T11:41:43;6.60;99.90
9965;DHT22;5023;53.554;9.964;2023-02-01T11:46:47;6.60;99.90
9965;DHT22;5023;53.554;9.964;2023-02-01T11:52:03;6.60;99.90
9965;DHT22;5023;53.554;9.964;2023-02-01T11:57:19;6.60;99.90
9965;DHT22;5023;53.554;9.964;2023-02-01T12:02:45;6.50;99.90
9965;DHT22;5023;53.554;9.964;2023-02-01T12:08:11;6.40;99.90
9965;DHT22;5023;53.554;9.964;2023-02-01T12:13:27;6.30;99.90
9965;DHT22;5023;53.554;9.964;2023-02-01T12:18:47;6.20;99.90
9965;DHT22;5023;53.554;9.964;2023-02-01T12:29:37;6.10;99.90
9965;DHT22;5023;53.554;9.964;2023-02-01T12:35:04;6.00;99.90
9965;DHT22;5023;53.554;9.964;2023-02-01T12:40:20;6.00;99.90
9965;DHT22;5023;53.554;9.964;2023-02-01T12:45:33;5.80;99.90
9965;DHT22;5023;53.554;9.964;2023-02-01T12:50:43;5.50;99.90
9965;DHT22;5023;53.554;9.964;2023-02-01T12:55:49;5.30;99.90
9965;DHT22;5023;53.554;9.964;2023-02-01T13:00:59;5.20;99.90
9965;DHT22;5023;53.554;9.964;2023-02-01T13:06:15;5.10;99.90
9965;DHT22;5023;53.554;9.964;2023-02-01T13:11:24;5.00;99.90
9965;DHT22;5023;53.554;9.964;2023-02-01T13:16:30;5.00;99.90
9965;DHT22;5023;53.554;9.964;2023-02-01T13:21:39;5.00;99.90
9965;DHT22;5023;53.554;9.964;2023-02-01T13:26:46;5.00;99.90
9965;DHT22;5023;53.554;9.964;2023-02-01T13:32:28;4.90;99.90
9965;DHT22;5023;53.554;9.964;2023-02-01T13:37:48;4.90;99.90
9965;DHT22;5023;53.554;9.964;2023-02-01T13:42:55;4.90;99.90
9965;DHT22;5023;53.554;9.964;2023-02-01T13:47:59;5.00;99.90
9965;DHT22;5023;53.554;9.964;2023-02-01T13:53:14;5.00;99.90
9965;DHT22;5023;53.554;9.964;2023-02-01T13:58:31;5.10;99.90
9965;DHT22;5023;53.554;9.964;2023-02-01T14:03:44;5.10;99.90
9965;DHT22;5023;53.554;9.964;2023-02-01T14:09:15;5.10;99.90
9965;DHT22;5023;53.554;9.964;2023-02-01T14:14:48;5.30;99.90
9965;DHT22;5023;53.554;9.964;2023-02-01T14:26:04;5.60;99.90
9965;DHT22;5023;53.554;9.964;2023-02-01T14:31:51;5.80;99.90
9965;DHT22;5023;53.554;9.964;2023-02-01T14:37:05;5.80;99.90
9965;DHT22;5023;53.554;9.964;2023-02-01T14:42:26;5.90;99.90
9965;DHT22;5023;53.554;9.964;2023-02-01T14:47:35;5.50;99.90
9965;DHT22;5023;53.554;9.964;2023-02-01T14:53:14;5.40;99.90
9965;DHT22;5023;53.554;9.964;2023-02-01T14:58:41;5.30;99.90
9965;DHT22;5023;53.554;9.964;2023-02-01T15:03:50;5.10;99.90
9965;DHT22;5023;53.554;9.964;2023-02-01T15:08:57;5.20;99.90
9965;DHT22;5023;53.554;9.964;2023-02-01T15:14:11;5.30;99.90
9965;DHT22;5023;53.554;9.964;2023-02-01T15:19:15;5.20;99.90
9965;DHT22;5023;53.554;9.964;2023-02-01T15:24:21;5.30;99.90
9965;DHT22;5023;53.554;9.964;2023-02-01T15:29:25;5.20;99.90
9965;DHT22;5023;53.554;9.964;2023-02-01T15:34:45;5.20;99.90
9965;DHT22;5023;53.554;9.964;2023-02-01T15:40:05;5.10;99.90
9965;DHT22;5023;53.554;9.964;2023-02-01T15:45:17;5.00;99.90
9965;DHT22;5023;53.554;9.964;2023-02-01T15:50:21;5.00;99.90
9965;DHT22;5023;53.554;9.964;2023-02-01T15:55:33;5.00;99.90
9965;DHT22;5023;53.554;9.964;2023-02-01T16:00:44;5.10;99.90
9965;DHT22;5023;53.554;9.964;2023-02-01T16:05:55;5.10;99.90
9965;DHT22;5023;53.554;9.964;2023-02-01T16:11:01;5.20;99.90
9965;DHT22;5023;53.554;9.964;2023-02-01T16:16:06;5.20;99.90
9965;DHT22;5023;53.554;9.964;2023-02-01T16:21:17;5.20;99.90
9965;DHT22;5023;53.554;9.964;2023-02-01T16:26:20;5.20;99.90
9965;DHT22;5023;53.554;9.964;2023-02-01T16:31:26;5.40;99.90
9965;DHT22;5023;53.554;9.964;2023-02-01T16:36:29;5.40;99.90
9965;DHT22;5023;53.554;9.964;2023-02-01T16:41:31;5.30;99.90
9965;DHT22;5023;53.554;9.964;2023-02-01T16:46:40;5.40;99.90
9965;DHT22;5023;53.554;9.964;2023-02-01T16:51:47;5.40;99.90
9965;DHT22;5023;53.554;9.964;2023-02-01T16:56:51;5.40;99.90
9965;DHT22;5023;53.554;9.964;2023-02-01T17:01:56;5.40;99.90
9965;DHT22;5023;53.554;9.964;2023-02-01T17:06:58;5.50;99.90
9965;DHT22;5023;53.554;9.964;2023-02-01T17:12:09;5.60;99.90
9965;DHT22;5023;53.554;9.964;2023-02-01T17:17:19;5.70;99.90
9965;DHT22;5023;53.554;9.964;2023-02-01T17:22:22;5.80;99.90
9965;DHT22;5023;53.554;9.964;2023-02-01T17:27:24;5.80;99.90
9965;DHT22;5023;53.554;9.964;2023-02-01T17:32:33;5.90;99.90
9965;DHT22;5023;53.554;9.964;2023-02-01T17:37:36;5.90;99.90
9965;DHT22;5023;53.554;9.964;2023-02-01T17:42:38;6.00;99.90
9965;DHT22;5023;53.554;9.964;2023-02-01T17:47:42;6.00;99.90
9965;DHT22;5023;53.554;9.964;2023-02-01T17:52:47;6.00;99.90
9965;DHT22;5023;53.554;9.964;2023-02-01T17:57:50;6.00;99.90
9965;DHT22;5023;53.554;9.964;2023-02-01T18:02:53;6.00;99.90
9965;DHT22;5023;53.554;9.964;2023-02-01T18:07:57;6.00;99.90
9965;DHT22;5023;53.554;9.964;2023-02-01T18:13:00;6.00;99.90
9965;DHT22;5023;53.554;9.964;2023-02-01T18:18:05;6.00;99.90
9965;DHT22;5023;53.554;9.964;2023-02-01T18:23:13;6.00;99.90
9965;DHT22;5023;53.554;9.964;2023-02-01T18:28:17;6.00;99.90
9965;DHT22;5023;53.554;9.964;2023-02-01T18:33:22;6.00;99.90
9965;DHT22;5023;53.554;9.964;2023-02-01T18:38:26;5.90;99.90
9965;DHT22;5023;53.554;9.964;2023-02-01T18:43:30;5.90;99.90
9965;DHT22;5023;53.554;9.964;2023-02-01T18:48:34;5.90;99.90
9965;DHT22;5023;53.554;9.964;2023-02-01T18:53:37;5.90;99.90
9965;DHT22;5023;53.554;9.964;2023-02-01T18:58:40;5.90;99.90
9965;DHT22;5023;53.554;9.964;2023-02-01T19:03:44;5.90;99.90
9965;DHT22;5023;53.554;9.964;2023-02-01T19:08:46;5.80;99.90
9965;DHT22;5023;53.554;9.964;2023-02-01T19:13:51;5.90;99.90
9965;DHT22;5023;53.554;9.964;2023-02-01T19:18:56;5.80;99.90
9965;DHT22;5023;53.554;9.964;2023-02-01T19:23:58;5.90;99.90
9965;DHT22;5023;53.554;9.964;2023-02-01T19:29:00;5.90;99.90
9965;DHT22;5023;53.554;9.964;2023-02-01T19:34:05;6.10;99.90
9965;DHT22;5023;53.554;9.964;2023-02-01T19:39:10;6.20;99.90
9965;DHT22;5023;53.554;9.964;2023-02-01T19:44:12;6.20;99.90
9965;DHT22;5023;53.554;9.964;2023-02-01T19:49:16;6.00;99.90
9965;DHT22;5023;53.554;9.964;2023-02-01T19:54:18;5.70;99.90
9965;DHT22;5023;53.554;9.964;2023-02-01T19:59:23;5.40;99.90
9965;DHT22;5023;53.554;9.964;2023-02-01T20:04:28;5.30;99.90
9965;DHT22;5023;53.554;9.964;2023-02-01T20:09:30;5.20;99.90
9965;DHT22;5023;53.554;9.964;2023-02-01T20:14:34;5.20;99.90
9965;DHT22;5023;53.554;9.964;2023-02-01T20:20:00;5.20;99.90
9965;DHT22;5023;53.554;9.964;2023-02-01T20:25:02;5.20;99.90
9965;DHT22;5023;53.554;9.964;2023-02-01T20:30:09;5.20;99.90
9965;DHT22;5023;53.554;9.964;2023-02-01T20:35:15;5.30;99.90
9965;DHT22;5023;53.554;9.964;2023-02-01T20:40:19;5.30;99.90
9965;DHT22;5023;53.554;9.964;2023-02-01T20:45:21;5.30;99.90
9965;DHT22;5023;53.554;9.964;2023-02-01T20:50:25;5.40;99.90
9965;DHT22;5023;53.554;9.964;2023-02-01T20:55:27;5.50;99.90
9965;DHT22;5023;53.554;9.964;2023-02-01T21:00:32;5.50;99.90
9965;DHT22;5023;53.554;9.964;2023-02-01T21:05:37;5.50;99.90
9965;DHT22;5023;53.554;9.964;2023-02-01T21:10:42;5.50;99.90
9965;DHT22;5023;53.554;9.964;2023-02-01T21:15:45;5.50;99.90
9965;DHT22;5023;53.554;9.964;2023-02-01T21:20:50;5.70;99.90
9965;DHT22;5023;53.554;9.964;2023-02-01T21:25:53;5.80;99.90
9965;DHT22;5023;53.554;9.964;2023-02-01T21:30:57;6.00;99.90
9965;DHT22;5023;53.554;9.964;2023-02-01T21:36:00;6.10;99.90
9965;DHT22;5023;53.554;9.964;2023-02-01T21:41:03;6.20;99.90
9965;DHT22;5023;53.554;9.964;2023-02-01T21:46:23;6.20;99.90
9965;DHT22;5023;53.554;9.964;2023-02-01T21:51:29;6.20;99.90
9965;DHT22;5023;53.554;9.964;2023-02-01T21:56:32;6.30;99.90
9965;DHT22;5023;53.554;9.964;2023-02-01T22:01:34;6.30;99.90
9965;DHT22;5023;53.554;9.964;2023-02-01T22:06:39;6.30;99.90
9965;DHT22;5023;53.554;9.964;2023-02-01T22:11:42;6.30;99.90
9965;DHT22;5023;53.554;9.964;2023-02-01T22:16:44;6.30;99.90
9965;DHT22;5023;53.554;9.964;2023-02-01T22:21:48;6.30;99.90
9965;DHT22;5023;53.554;9.964;2023-02-01T22:26:50;6.20;99.90
9965;DHT22;5023;53.554;9.964;2023-02-01T22:31:52;6.10;99.90
9965;DHT22;5023;53.554;9.964;2023-02-01T22:36:56;6.10;99.90
9965;DHT22;5023;53.554;9.964;2023-02-01T22:41:58;6.20;99.90
9965;DHT22;5023;53.554;9.964;2023-02-01T22:47:00;6.20;99.90
9965;DHT22;5023;53.554;9.964;2023-02-01T22:52:03;6.10;99.90
9965;DHT22;5023;53.554;9.964;2023-02-01T22:57:05;6.00;99.90
9965;DHT22;5023;53.554;9.964;2023-02-01T23:02:08;5.90;99.90
9965;DHT22;5023;53.554;9.964;2023-02-01T23:07:11;5.80;99.90
9965;DHT22;5023;53.554;9.964;2023-02-01T23:12:13;5.80;99.90
9965;DHT22;5023;53.554;9.964;2023-02-01T23:17:15;5.90;99.90
9965;DHT22;5023;53.554;9.964;2023-02-01T23:22:19;5.90;99.90
9965;DHT22;5023;53.554;9.964;2023-02-01T23:27:21;6.00;99.90
9965;DHT22;5023;53.554;9.964;2023-02-01T23:32:23;6.10;99.90
9965;DHT22;5023;53.554;9.964;2023-02-01T23:37:27;6.20;99.90
9965;DHT22;5023;53.554;9.964;2023-02-01T23:42:29;6.20;99.90
9965;DHT22;5023;53.554;9.964;2023-02-01T23:47:32;6.20;99.90
9965;DHT22;5023;53.554;9.964;2023-02-01T23:52:36;6.20;99.90
9965;DHT22;5023;53.554;9.964;2023-02-01T23:57:38;6.20;99.90
